Time;durP1;ratioP1;P1;durP2;ratioP2;P2;SDS_P1;SDS_P2;PMS_P1;PMS_P2;Temp;Humidity;BMP_temperature;BMP_pressure;BME280_temperature;BME280_humidity;BME280_pressure;Samples;Min_cycle;Max_cycle;Signal;HPM_P1;HPM_P2
2022/11/17 00:00:25;;;;;;;6.03;5.73;;;10.20;1.00;;;;;;4879665;29;20483;-80
2022/11/17 00:02:53;;;;;;;6.93;6.53;;;10.00;1.00;;;;;;4880233;29;20922;-80
2022/11/17 00:05:21;;;;;;;6.03;5.73;;;10.10;1.00;;;;;;4884096;29;20466;-81
2022/11/17 00:07:51;;;;;;;5.80;5.50;;;10.20;1.00;;;;;;4885996;29;20474;-81
2022/11/17 00:10:19;;;;;;;5.63;5.43;;;10.30;99.90;;;;;;4887954;29;20918;-81
2022/11/17 00:15:33;;;;;;;6.23;5.93;;;10.40;99.90;;;;;;4888309;29;20452;-80
2022/11/17 00:23:46;;;;;;;8.40;6.00;;;10.30;99.90;;;;;;4877751;29;20498;-80
2022/11/17 00:26:16;;;;;;;6.33;6.00;;;10.40;99.90;;;;;;4878206;29;20468;-80
2022/11/17 00:28:44;;;;;;;5.93;5.73;;;10.30;99.90;;;;;;4878684;29;20523;-80
2022/11/17 00:34:05;;;;;;;6.60;6.30;;;10.30;1.00;;;;;;4885365;29;20459;-81
2022/11/17 00:36:39;;;;;;;6.90;6.50;;;10.30;99.90;;;;;;4878754;29;20462;-81
2022/11/17 00:39:09;;;;;;;6.77;6.47;;;10.40;99.90;;;;;;4882955;29;20506;-81
2022/11/17 00:41:37;;;;;;;7.00;6.60;;;10.30;1.00;;;;;;4879800;29;20478;-81
2022/11/17 00:44:06;;;;;;;6.57;6.27;;;10.30;1.00;;;;;;4877555;29;20554;-80
2022/11/17 00:46:35;;;;;;;6.70;6.37;;;10.20;28.50;;;;;;4880437;29;20522;-80
2022/11/17 00:49:04;;;;;;;7.33;7.00;;;10.20;99.90;;;;;;4882256;29;20461;-81
2022/11/17 00:51:33;;;;;;;6.60;6.37;;;10.30;1.00;;;;;;4880846;29;20539;-80
2022/11/17 00:54:01;;;;;;;6.77;6.47;;;10.20;1.00;;;;;;4879136;29;20470;-80
2022/11/17 00:56:31;;;;;;;6.23;5.93;;;10.20;99.90;;;;;;4878394;29;20507;-82
2022/11/17 00:59:00;;;;;;;7.03;6.63;;;10.20;99.90;;;;;;4878852;29;20468;-80
2022/11/17 01:01:28;;;;;;;6.90;6.50;;;10.40;99.90;;;;;;4880790;29;20477;-79
2022/11/17 01:04:02;;;;;;;5.60;5.30;;;10.30;1.00;;;;;;4880807;29;20470;-80
2022/11/17 01:06:33;;;;;;;7.17;6.87;;;10.40;1.00;;;;;;4883371;29;20462;-80
2022/11/17 01:09:04;;;;;;;5.90;5.70;;;10.50;1.00;;;;;;4884868;29;20457;-80
2022/11/17 01:11:33;;;;;;;6.27;6.00;;;10.50;1.00;;;;;;4880466;29;21004;-80
2022/11/17 01:14:01;;;;;;;5.90;5.60;;;10.50;99.90;;;;;;4880032;29;21138;-81
2022/11/17 01:16:31;;;;;;;6.07;5.80;;;10.60;1.00;;;;;;4881941;29;20469;-80
2022/11/17 01:19:01;;;;;;;6.60;6.30;;;10.50;99.90;;;;;;4881237;29;20602;-81
2022/11/17 01:21:30;;;;;;;6.20;5.80;;;10.60;99.90;;;;;;4880732;29;20573;-80
2022/11/17 01:24:00;;;;;;;7.20;6.80;;;10.60;99.90;;;;;;4875747;29;20489;-80
2022/11/17 01:26:30;;;;;;;6.70;6.30;;;10.60;99.90;;;;;;4879248;29;20487;-80
2022/11/17 01:29:01;;;;;;;6.20;6.00;;;10.50;99.90;;;;;;4881368;29;21210;-80
2022/11/17 01:31:31;;;;;;;6.50;6.10;;;10.60;99.90;;;;;;4884138;29;20501;-82
2022/11/17 01:33:59;;;;;;;6.53;5.93;;;10.60;99.90;;;;;;4880194;29;20536;-80
2022/11/17 01:36:29;;;;;;;6.90;6.60;;;10.60;99.90;;;;;;4883431;29;20522;-80
2022/11/17 01:38:57;;;;;;;6.53;6.10;;;10.70;99.90;;;;;;4878733;29;21025;-80
2022/11/17 01:41:27;;;;;;;6.70;6.50;;;10.60;99.90;;;;;;4879575;29;20510;-79
2022/11/17 01:43:57;;;;;;;7.37;6.87;;;10.60;99.90;;;;;;4883274;29;20561;-80
2022/11/17 01:46:31;;;;;;;6.33;6.00;;;10.70;99.90;;;;;;4881271;29;20459;-79
2022/11/17 01:49:06;;;;;;;6.10;5.80;;;10.60;99.90;;;;;;4886310;29;21089;-80
2022/11/17 01:51:39;;;;;;;6.07;5.70;;;10.60;99.90;;;;;;4886892;29;20490;-80
2022/11/17 01:54:10;;;;;;;6.07;5.67;;;10.50;99.90;;;;;;4882949;29;20662;-79
2022/11/17 01:56:43;;;;;;;6.17;5.87;;;10.60;99.90;;;;;;4883141;29;20462;-80
2022/11/17 01:59:18;;;;;;;5.20;5.10;;;10.70;99.90;;;;;;4881115;29;20611;-80
2022/11/17 02:01:55;;;;;;;5.30;5.10;;;10.70;99.90;;;;;;4882490;29;23254;-79
2022/11/17 02:04:26;;;;;;;5.63;5.40;;;10.60;99.90;;;;;;4883051;29;21071;-80
2022/11/17 02:07:00;;;;;;;5.50;5.30;;;10.70;99.90;;;;;;4887163;29;20463;-80
2022/11/17 02:09:29;;;;;;;6.63;6.07;;;10.70;99.90;;;;;;4891451;29;20499;-79
2022/11/17 02:11:58;;;;;;;6.33;5.93;;;10.70;99.90;;;;;;4888295;29;20491;-79
2022/11/17 02:14:26;;;;;;;5.80;5.50;;;10.70;99.90;;;;;;4886681;29;20516;-81
2022/11/17 02:16:56;;;;;;;5.23;5.10;;;10.70;99.90;;;;;;4885212;29;20516;-81
2022/11/17 02:19:37;;;;;;;5.77;5.40;;;10.70;99.90;;;;;;4880283;29;20466;-81
2022/11/17 02:22:23;;;;;;;6.20;5.80;;;10.60;95.70;;;;;;4886210;29;21018;-80
2022/11/17 02:25:08;;;;;;;5.80;5.60;;;10.70;99.90;;;;;;4887821;29;20464;-80
2022/11/17 02:27:55;;;;;;;5.47;5.27;;;10.70;91.60;;;;;;4889982;29;20561;-80
2022/11/17 02:30:24;;;;;;;5.57;5.13;;;10.60;98.00;;;;;;4887591;29;20495;-80
2022/11/17 02:33:02;;;;;;;6.20;5.90;;;10.50;99.90;;;;;;4886471;29;20490;-80
2022/11/17 02:35:40;;;;;;;5.70;5.40;;;10.50;99.30;;;;;;4885082;29;20979;-80
2022/11/17 02:38:19;;;;;;;5.17;5.03;;;10.60;81.10;;;;;;4882643;29;20577;-80
2022/11/17 02:40:52;;;;;;;6.03;5.83;;;10.50;63.50;;;;;;4887088;29;20551;-80
2022/11/17 02:46:16;;;;;;;5.43;5.33;;;10.50;84.10;;;;;;4888797;29;21053;-80
2022/11/17 02:48:49;;;;;;;6.63;6.33;;;10.50;54.70;;;;;;4887064;29;20512;-80
2022/11/17 02:51:21;;;;;;;6.03;5.63;;;10.50;73.20;;;;;;4891480;29;20482;-80
2022/11/17 02:53:52;;;;;;;5.87;5.63;;;10.40;95.60;;;;;;4884906;29;20475;-80
2022/11/17 02:56:20;;;;;;;5.23;4.93;;;10.40;99.90;;;;;;4894969;29;21011;-80
2022/11/17 02:58:52;;;;;;;5.40;5.00;;;10.30;99.90;;;;;;4888628;29;20463;-80
2022/11/17 03:01:36;;;;;;;5.50;5.30;;;10.40;99.90;;;;;;4890966;29;20483;-80
2022/11/17 03:04:22;;;;;;;6.10;5.80;;;10.40;99.90;;;;;;4891682;29;20459;-80
2022/11/17 03:06:59;;;;;;;5.43;5.13;;;10.50;99.90;;;;;;4884948;29;20523;-80
2022/11/17 03:09:38;;;;;;;5.37;5.17;;;10.40;99.90;;;;;;4891113;29;20527;-79
2022/11/17 03:12:12;;;;;;;5.57;5.27;;;10.50;99.90;;;;;;4889836;29;20552;-80
2022/11/17 03:14:51;;;;;;;5.47;5.27;;;10.50;99.90;;;;;;4884057;29;20467;-80
2022/11/17 03:17:23;;;;;;;7.23;6.83;;;10.50;99.90;;;;;;4881179;29;20550;-79
2022/11/17 03:19:58;;;;;;;7.70;7.10;;;10.50;99.90;;;;;;4882385;29;20556;-80
2022/11/17 03:22:32;;;;;;;10.07;7.53;;;10.50;99.90;;;;;;4880043;29;21048;-80
2022/11/17 03:25:04;;;;;;;7.10;6.70;;;10.50;99.90;;;;;;4880386;29;20463;-80
2022/11/17 03:27:38;;;;;;;6.47;6.10;;;10.50;99.90;;;;;;4879273;29;20456;-79
2022/11/17 03:30:10;;;;;;;5.40;5.20;;;10.50;99.90;;;;;;4880183;29;20522;-80
2022/11/17 03:32:40;;;;;;;5.60;5.40;;;10.50;99.90;;;;;;4883288;29;20839;-80
2022/11/17 03:35:12;;;;;;;5.20;4.90;;;10.40;1.00;;;;;;4880571;29;20539;-80
2022/11/17 03:37:46;;;;;;;6.00;5.70;;;10.50;1.00;;;;;;4883983;29;20452;-80
2022/11/17 03:40:17;;;;;;;6.63;6.33;;;10.50;1.00;;;;;;4880208;29;20516;-80
2022/11/17 03:42:51;;;;;;;6.20;6.00;;;10.60;1.00;;;;;;4881503;29;20458;-81
2022/11/17 03:45:24;;;;;;;7.00;6.80;;;10.50;1.00;;;;;;4883269;29;20474;-79
2022/11/17 03:47:58;;;;;;;6.10;5.87;;;10.50;99.90;;;;;;4881319;29;20922;-80
2022/11/17 03:50:33;;;;;;;6.23;5.93;;;10.50;99.90;;;;;;4881432;29;20491;-79
2022/11/17 03:53:02;;;;;;;6.87;6.50;;;10.50;1.00;;;;;;4884232;29;20535;-80
2022/11/17 03:55:41;;;;;;;7.27;6.90;;;10.50;99.90;;;;;;4882055;29;21067;-80
2022/11/17 03:58:14;;;;;;;6.57;6.37;;;10.50;1.00;;;;;;4882032;29;20469;-79
2022/11/17 04:00:46;;;;;;;7.13;6.93;;;10.50;1.00;;;;;;4881338;29;20543;-79
2022/11/17 04:03:15;;;;;;;7.00;6.80;;;10.50;38.10;;;;;;4886506;29;20494;-79
2022/11/17 04:05:43;;;;;;;8.10;7.73;;;10.40;1.00;;;;;;4880255;29;20468;-79
2022/11/17 04:08:11;;;;;;;7.10;6.90;;;10.50;1.00;;;;;;4879702;29;20494;-80
2022/11/17 04:16:08;;;;;;;7.93;7.67;;;10.40;1.00;;;;;;4885639;29;20505;-81
2022/11/17 04:18:36;;;;;;;7.73;7.43;;;10.50;1.00;;;;;;4881006;29;20550;-80
2022/11/17 04:21:05;;;;;;;7.40;7.20;;;10.50;99.90;;;;;;4878490;29;20474;-80
2022/11/17 04:23:33;;;;;;;7.30;7.10;;;10.50;1.00;;;;;;4881769;29;20750;-80
2022/11/17 04:28:49;;;;;;;7.50;7.20;;;10.60;1.00;;;;;;4883464;29;20447;-81
2022/11/17 04:31:21;;;;;;;7.93;7.53;;;10.50;99.90;;;;;;4881210;29;20495;-81
2022/11/17 04:33:51;;;;;;;7.50;7.30;;;10.50;1.00;;;;;;4879606;29;20536;-80
2022/11/17 04:36:20;;;;;;;7.13;6.83;;;10.50;1.00;;;;;;4881343;29;20535;-81
2022/11/17 04:38:50;;;;;;;7.83;7.60;;;10.50;56.70;;;;;;4881007;29;20484;-79
2022/11/17 04:44:06;;;;;;;8.07;7.77;;;10.50;13.00;;;;;;4880583;29;20474;-80
2022/11/17 04:46:38;;;;;;;8.57;8.17;;;10.60;99.90;;;;;;4882194;29;20470;-81
2022/11/17 04:49:07;;;;;;;8.00;7.63;;;10.60;99.90;;;;;;4882545;29;20462;-80
2022/11/17 04:51:36;;;;;;;7.50;7.30;;;10.60;99.90;;;;;;4879554;29;20934;-79
2022/11/17 04:54:06;;;;;;;8.30;8.00;;;10.60;1.00;;;;;;4879910;29;20523;-80
2022/11/17 04:56:34;;;;;;;9.20;8.80;;;10.60;99.90;;;;;;4878681;29;20523;-80
2022/11/17 04:59:02;;;;;;;8.47;8.17;;;10.60;5.60;;;;;;4879944;29;20459;-79
2022/11/17 05:01:30;;;;;;;9.27;8.60;;;10.60;21.70;;;;;;4873850;29;20566;-79
2022/11/17 05:04:00;;;;;;;8.20;7.90;;;10.60;99.90;;;;;;4873763;29;20542;-79
2022/11/17 05:06:31;;;;;;;8.43;8.13;;;10.60;99.90;;;;;;4880748;29;20476;-79
2022/11/17 05:09:02;;;;;;;8.33;8.13;;;10.60;99.90;;;;;;4877417;29;20463;-79
2022/11/17 05:14:18;;;;;;;7.87;7.57;;;10.60;32.00;;;;;;4879298;29;20572;-79
2022/11/17 05:17:04;;;;;;;8.30;8.00;;;10.60;18.40;;;;;;4876455;29;20564;-79
2022/11/17 05:19:40;;;;;;;8.83;8.40;;;10.60;99.90;;;;;;4875832;29;20486;-80
2022/11/17 05:24:52;;;;;;;8.60;8.10;;;10.60;99.90;;;;;;4880629;29;20467;-80
2022/11/17 05:27:20;;;;;;;8.70;8.40;;;10.70;99.90;;;;;;4881906;29;20860;-79
2022/11/17 05:29:49;;;;;;;8.60;8.30;;;10.70;99.90;;;;;;4883735;29;20457;-80
2022/11/17 05:32:17;;;;;;;8.60;8.30;;;10.70;5.20;;;;;;4883243;29;20969;-79
2022/11/17 05:34:47;;;;;;;8.20;8.00;;;10.60;99.90;;;;;;4879085;29;20528;-79
2022/11/17 05:37:15;;;;;;;8.57;8.27;;;10.60;1.00;;;;;;4879978;29;20545;-81
2022/11/17 05:39:43;;;;;;;8.77;8.47;;;10.60;1.00;;;;;;4884208;29;20463;-80
2022/11/17 05:42:11;;;;;;;8.70;8.40;;;10.70;99.90;;;;;;4885071;29;20517;-80
2022/11/17 05:44:40;;;;;;;8.23;8.03;;;10.50;12.50;;;;;;4885537;29;20485;-80
2022/11/17 05:47:08;;;;;;;8.17;7.97;;;10.60;1.00;;;;;;4883779;29;20455;-80
2022/11/17 05:49:36;;;;;;;8.37;8.17;;;10.60;1.00;;;;;;4890628;29;20465;-79
2022/11/17 05:52:07;;;;;;;8.40;8.10;;;10.50;99.90;;;;;;4887256;29;20503;-80
2022/11/17 05:54:35;;;;;;;8.93;8.53;;;10.50;99.90;;;;;;4885338;29;20566;-80
2022/11/17 05:57:07;;;;;;;8.43;8.23;;;10.50;99.90;;;;;;4883861;29;20564;-80
2022/11/17 05:59:39;;;;;;;8.63;8.43;;;10.40;99.90;;;;;;4888117;29;20454;-81
2022/11/17 06:02:11;;;;;;;9.40;9.10;;;10.50;30.40;;;;;;4886674;29;20484;-80
2022/11/17 06:04:39;;;;;;;8.83;8.63;;;10.50;30.20;;;;;;4887288;29;20447;-81
2022/11/17 06:07:10;;;;;;;9.20;9.00;;;10.60;29.30;;;;;;4889223;29;20473;-81
2022/11/17 06:09:41;;;;;;;8.70;8.53;;;10.60;99.90;;;;;;4880919;29;20517;-81
2022/11/17 06:12:10;;;;;;;8.53;8.40;;;10.60;99.90;;;;;;4885325;29;20551;-80
2022/11/17 06:14:39;;;;;;;8.77;8.57;;;10.60;1.00;;;;;;4882222;29;20463;-80
2022/11/17 06:17:10;;;;;;;9.30;9.03;;;10.50;99.90;;;;;;4887205;29;20459;-79
2022/11/17 06:19:42;;;;;;;9.00;8.77;;;10.60;99.90;;;;;;4888168;29;20463;-80
2022/11/17 06:22:11;;;;;;;9.47;9.17;;;10.60;1.00;;;;;;4885816;29;20550;-80
2022/11/17 06:24:42;;;;;;;9.90;9.60;;;10.60;99.90;;;;;;4884575;29;20493;-80
2022/11/17 06:27:10;;;;;;;9.30;9.10;;;10.50;99.90;;;;;;4887874;29;20802;-80
2022/11/17 06:29:39;;;;;;;9.83;9.30;;;10.50;1.00;;;;;;4884540;29;20501;-81
2022/11/17 06:32:12;;;;;;;10.00;9.53;;;10.50;1.00;;;;;;4883443;29;20482;-80
2022/11/17 06:34:41;;;;;;;9.20;8.90;;;10.50;1.00;;;;;;4887563;29;20490;-80
2022/11/17 06:37:10;;;;;;;9.80;9.50;;;10.60;37.80;;;;;;4888684;29;20462;-80
2022/11/17 06:39:39;;;;;;;9.87;9.60;;;10.50;99.90;;;;;;4885242;29;21061;-81
2022/11/17 06:42:07;;;;;;;9.70;9.40;;;10.40;30.70;;;;;;4892189;29;20470;-81
2022/11/17 06:44:35;;;;;;;9.43;9.23;;;10.40;99.90;;;;;;4883120;29;20450;-79
2022/11/17 06:47:04;;;;;;;9.90;9.40;;;10.50;1.00;;;;;;4882865;29;20968;-81
2022/11/17 06:49:32;;;;;;;9.90;9.60;;;10.50;99.90;;;;;;4882232;29;20467;-79
2022/11/17 06:52:00;;;;;;;9.70;9.50;;;10.40;1.00;;;;;;4890679;29;20514;-80
2022/11/17 06:54:28;;;;;;;9.50;9.30;;;10.40;9.20;;;;;;4888290;29;20483;-81
2022/11/17 06:56:58;;;;;;;9.73;9.53;;;10.50;1.00;;;;;;4881671;29;20498;-78
2022/11/17 06:59:26;;;;;;;9.93;9.67;;;10.50;1.00;;;;;;4887487;29;21034;-79
2022/11/17 07:01:54;;;;;;;9.80;9.50;;;10.50;99.90;;;;;;4877226;29;20569;-80
2022/11/17 07:04:23;;;;;;;9.93;9.65;;;10.40;1.00;;;;;;4890592;29;20466;-82
2022/11/17 07:06:51;;;;;;;9.70;9.40;;;10.40;99.90;;;;;;4888372;29;20207;-81
2022/11/17 07:09:19;;;;;;;10.10;9.80;;;10.50;1.00;;;;;;4894511;29;20458;-81
2022/11/17 07:11:47;;;;;;;10.13;9.93;;;10.50;3.80;;;;;;4892100;29;20475;-80
2022/11/17 07:14:17;;;;;;;10.23;9.90;;;10.40;99.90;;;;;;4891245;29;20493;-81
2022/11/17 07:16:45;;;;;;;9.67;9.37;;;10.50;99.90;;;;;;4898449;29;20500;-80
2022/11/17 07:19:13;;;;;;;9.80;9.60;;;10.50;99.90;;;;;;4895008;29;20511;-80
2022/11/17 07:21:41;;;;;;;9.67;9.30;;;10.60;99.90;;;;;;4888679;29;20479;-80
2022/11/17 07:24:09;;;;;;;9.60;9.40;;;10.60;99.90;;;;;;4890078;29;20466;-81
2022/11/17 07:26:38;;;;;;;9.83;9.63;;;10.60;25.90;;;;;;4894210;29;20470;-80
2022/11/17 07:29:06;;;;;;;9.57;9.27;;;10.70;79.90;;;;;;4891231;29;20460;-80
2022/11/17 07:31:36;;;;;;;9.90;9.40;;;10.70;99.90;;;;;;4885633;29;20479;-81
2022/11/17 07:34:04;;;;;;;9.87;9.57;;;10.80;1.00;;;;;;4876319;29;20982;-82
2022/11/17 07:36:33;;;;;;;10.53;10.07;;;10.80;23.80;;;;;;4888536;29;20479;-81
2022/11/17 07:39:01;;;;;;;10.43;10.23;;;10.70;1.00;;;;;;4884429;29;20915;-82
2022/11/17 07:41:30;;;;;;;10.03;9.80;;;10.90;99.90;;;;;;4890091;29;20577;-82
2022/11/17 07:43:59;;;;;;;9.97;9.53;;;10.80;1.00;;;;;;4885383;29;20495;-81
2022/11/17 07:46:27;;;;;;;10.20;9.70;;;10.80;1.00;;;;;;4884275;29;20462;-81
2022/11/17 07:48:57;;;;;;;9.50;9.30;;;10.80;1.00;;;;;;4888134;29;20469;-82
2022/11/17 07:51:25;;;;;;;9.63;9.43;;;10.80;46.80;;;;;;4888257;29;20485;-81
2022/11/17 07:53:53;;;;;;;9.83;9.60;;;10.80;1.00;;;;;;4885292;29;20535;-81
2022/11/17 07:56:21;;;;;;;10.30;9.90;;;10.90;1.00;;;;;;4886294;29;20501;-82
2022/11/17 07:58:50;;;;;;;9.70;9.40;;;10.90;1.00;;;;;;4883825;29;20955;-82
2022/11/17 08:01:18;;;;;;;9.93;9.63;;;11.00;99.90;;;;;;4888552;29;21025;-83
2022/11/17 08:03:46;;;;;;;10.60;10.10;;;11.00;99.90;;;;;;4883480;29;20474;-83
2022/11/17 08:06:16;;;;;;;10.20;9.80;;;11.00;99.90;;;;;;4885683;29;20455;-83
2022/11/17 08:08:47;;;;;;;10.10;9.80;;;11.00;99.90;;;;;;4885827;29;21388;-82
2022/11/17 08:11:15;;;;;;;10.03;9.73;;;11.20;19.70;;;;;;4886420;29;20483;-81
2022/11/17 08:13:43;;;;;;;10.50;10.00;;;11.40;1.00;;;;;;4891079;29;20872;-83
2022/11/17 08:16:13;;;;;;;10.10;9.90;;;11.40;1.00;;;;;;4887542;29;20488;-83
2022/11/17 08:18:41;;;;;;;9.90;9.60;;;11.40;1.00;;;;;;4884704;29;20475;-82
2022/11/17 08:21:17;;;;;;;9.83;9.63;;;11.40;99.90;;;;;;4885888;29;20481;-83
2022/11/17 08:23:49;;;;;;;9.80;9.60;;;11.40;99.90;;;;;;4887654;29;21266;-83
2022/11/17 08:26:19;;;;;;;10.53;10.33;;;11.40;99.90;;;;;;4887657;29;20569;-82
2022/11/17 08:28:47;;;;;;;10.40;10.10;;;11.40;99.90;;;;;;4885750;29;20493;-83
2022/11/17 08:31:23;;;;;;;9.53;9.23;;;11.40;99.90;;;;;;4885838;29;20485;-83
2022/11/17 08:33:52;;;;;;;9.70;9.30;;;11.40;99.90;;;;;;4886624;29;20469;-83
2022/11/17 08:36:21;;;;;;;9.57;9.37;;;11.40;99.90;;;;;;4888628;29;20570;-83
2022/11/17 08:38:50;;;;;;;10.00;9.70;;;11.30;99.90;;;;;;4883892;29;20628;-83
2022/11/17 08:41:18;;;;;;;10.00;9.70;;;11.30;99.90;;;;;;4885359;29;20497;-82
2022/11/17 08:43:46;;;;;;;10.10;9.77;;;11.40;99.90;;;;;;4882865;29;20536;-83
2022/11/17 08:46:15;;;;;;;9.67;9.37;;;11.50;99.90;;;;;;4883490;29;20471;-83
2022/11/17 08:48:43;;;;;;;10.33;9.97;;;11.50;99.90;;;;;;4884835;29;20507;-82
2022/11/17 08:51:13;;;;;;;10.03;9.80;;;11.60;99.90;;;;;;4889372;29;20507;-83
2022/11/17 08:53:43;;;;;;;10.00;9.80;;;11.60;2.80;;;;;;4883765;29;20536;-82
2022/11/17 08:56:13;;;;;;;9.87;9.67;;;11.60;1.00;;;;;;4880000;29;20497;-82
2022/11/17 08:58:41;;;;;;;9.90;9.60;;;11.70;1.00;;;;;;4885422;29;20460;-82
2022/11/17 09:01:11;;;;;;;10.80;10.60;;;11.70;99.90;;;;;;4887007;29;20480;-84
2022/11/17 09:03:41;;;;;;;10.40;10.10;;;11.80;99.90;;;;;;4889459;29;20727;-81
2022/11/17 09:06:10;;;;;;;10.23;10.03;;;11.70;1.00;;;;;;4885652;29;20212;-82
2022/11/17 09:08:38;;;;;;;10.43;10.17;;;11.70;1.00;;;;;;4883182;29;20455;-82
2022/11/17 09:11:16;;;;;;;10.20;9.90;;;11.80;1.00;;;;;;4884226;29;20485;-82
2022/11/17 09:13:45;;;;;;;9.70;9.50;;;11.90;1.00;;;;;;4883884;29;20463;-81
2022/11/17 09:16:15;;;;;;;10.00;9.60;;;11.80;1.00;;;;;;4884305;29;20476;-83
2022/11/17 09:18:43;;;;;;;9.90;9.60;;;11.80;1.00;;;;;;4887630;29;20480;-82
2022/11/17 09:21:14;;;;;;;9.60;9.40;;;11.80;1.00;;;;;;4886547;29;20266;-82
2022/11/17 09:23:42;;;;;;;9.30;9.03;;;12.00;99.90;;;;;;4882383;29;20883;-82
2022/11/17 09:26:12;;;;;;;9.03;8.83;;;12.00;99.90;;;;;;4883270;29;20455;-81
2022/11/17 09:28:42;;;;;;;9.10;8.90;;;11.90;99.90;;;;;;4886896;29;20942;-82
2022/11/17 09:31:12;;;;;;;9.00;8.80;;;11.80;99.90;;;;;;4897154;29;20931;-82
2022/11/17 09:33:41;;;;;;;9.77;9.37;;;11.80;99.90;;;;;;4884459;29;20464;-82
2022/11/17 09:36:10;;;;;;;10.37;9.97;;;12.10;99.90;;;;;;4880727;29;20498;-82
2022/11/17 09:38:38;;;;;;;9.17;8.93;;;12.30;99.90;;;;;;4883212;29;20517;-82
2022/11/17 09:41:20;;;;;;;8.80;8.60;;;12.20;99.90;;;;;;4883806;29;20475;-82
2022/11/17 09:43:56;;;;;;;10.00;9.70;;;12.20;99.90;;;;;;4881121;29;20536;-82
2022/11/17 09:46:32;;;;;;;9.50;9.20;;;12.30;99.90;;;;;;4884324;29;20474;-82
2022/11/17 09:49:08;;;;;;;9.00;8.60;;;12.30;99.90;;;;;;4882562;29;21102;-81
2022/11/17 09:51:38;;;;;;;8.70;8.40;;;12.30;95.00;;;;;;4881880;29;20481;-82
2022/11/17 09:54:16;;;;;;;8.20;8.00;;;12.20;55.70;;;;;;4883145;29;20477;-82
2022/11/17 09:56:47;;;;;;;8.10;7.90;;;12.20;54.10;;;;;;4885793;29;20991;-82
2022/11/17 09:59:20;;;;;;;8.20;7.90;;;12.30;37.50;;;;;;4887200;29;20469;-82
2022/11/17 10:01:48;;;;;;;8.17;8.07;;;12.50;6.80;;;;;;4878322;29;20547;-81
2022/11/17 10:04:17;;;;;;;8.73;8.53;;;12.90;1.00;;;;;;4883192;29;20723;-81
2022/11/17 10:06:49;;;;;;;8.87;8.50;;;13.00;1.00;;;;;;4881208;29;21107;-82
2022/11/17 10:09:25;;;;;;;8.17;7.87;;;12.60;1.00;;;;;;4887726;29;20473;-82
2022/11/17 10:11:57;;;;;;;8.63;8.23;;;12.60;1.00;;;;;;4888176;29;20489;-82
2022/11/17 10:14:29;;;;;;;8.80;8.50;;;13.40;1.00;;;;;;4887542;29;20448;-82
2022/11/17 10:16:58;;;;;;;10.20;9.90;;;15.50;1.00;;;;;;4888331;29;20486;-84
2022/11/17 10:19:28;;;;;;;7.77;7.57;;;16.90;99.90;;;;;;4885379;29;20572;-81
2022/11/17 10:22:16;;;;;;;6.90;6.57;;;17.70;99.90;;;;;;4886038;29;20492;-81
2022/11/17 10:24:50;;;;;;;7.30;6.90;;;16.70;99.90;;;;;;4885878;29;20566;-82
2022/11/17 10:27:21;;;;;;;6.30;6.10;;;15.00;99.90;;;;;;4882464;29;20438;-80
2022/11/17 10:30:00;;;;;;;5.93;5.67;;;13.70;99.90;;;;;;4882965;29;20474;-82
2022/11/17 10:32:30;;;;;;;6.00;5.80;;;13.20;99.90;;;;;;4884639;29;20525;-80
2022/11/17 10:35:13;;;;;;;6.10;5.70;;;13.70;99.90;;;;;;4882001;29;20461;-79
2022/11/17 10:37:44;;;;;;;5.83;5.53;;;13.80;99.90;;;;;;4882041;29;20477;-81
2022/11/17 10:40:17;;;;;;;5.77;5.67;;;13.40;99.90;;;;;;4886870;29;20508;-81
2022/11/17 10:43:03;;;;;;;6.03;5.60;;;13.10;99.90;;;;;;4885261;29;20457;-79
2022/11/17 10:45:33;;;;;;;6.07;5.77;;;13.00;99.90;;;;;;4894737;29;20524;-80
2022/11/17 10:48:10;;;;;;;5.80;5.70;;;12.80;99.90;;;;;;4884191;29;20536;-79
2022/11/17 10:50:52;;;;;;;5.90;5.63;;;12.70;99.90;;;;;;4883831;29;20565;-80
2022/11/17 10:53:24;;;;;;;6.10;5.80;;;12.80;99.90;;;;;;4885138;29;20466;-80
2022/11/17 10:56:00;;;;;;;7.40;7.00;;;13.50;99.90;;;;;;4883204;29;21192;-80
2022/11/17 10:58:30;;;;;;;6.23;6.03;;;14.00;99.90;;;;;;4880215;29;20895;-80
2022/11/17 11:01:02;;;;;;;7.07;6.67;;;15.00;99.90;;;;;;4881877;29;20943;-79
2022/11/17 11:03:32;;;;;;;7.57;7.17;;;15.80;99.90;;;;;;4883120;29;20498;-79
2022/11/17 11:06:04;;;;;;;6.33;5.90;;;16.60;99.90;;;;;;4885073;29;20458;-82
2022/11/17 11:08:42;;;;;;;5.97;5.73;;;17.00;99.90;;;;;;4887420;29;20463;-81
2022/11/17 11:11:17;;;;;;;6.97;5.90;;;16.90;99.90;;;;;;4883399;29;20564;-80
2022/11/17 11:13:52;;;;;;;6.10;5.80;;;16.80;99.90;;;;;;4885672;29;20461;-79
2022/11/17 11:16:22;;;;;;;6.10;5.70;;;16.20;99.90;;;;;;4882617;29;20472;-78
2022/11/17 11:18:52;;;;;;;5.57;5.37;;;15.60;99.90;;;;;;4879065;29;21106;-79
2022/11/17 11:21:36;;;;;;;6.10;5.77;;;14.90;99.90;;;;;;4884827;29;20538;-79
2022/11/17 11:24:15;;;;;;;6.47;5.90;;;14.70;99.90;;;;;;4884899;29;20489;-78
2022/11/17 11:26:57;;;;;;;6.13;5.93;;;14.60;99.90;;;;;;4890501;29;20498;-78
2022/11/17 11:29:33;;;;;;;6.10;5.90;;;14.70;99.90;;;;;;4885998;29;20529;-78
2022/11/17 11:32:20;;;;;;;7.00;6.60;;;14.70;99.90;;;;;;4884823;29;20511;-79
2022/11/17 11:35:22;;;;;;;6.37;5.90;;;14.50;99.90;;;;;;4888559;29;20979;-79
2022/11/17 11:38:02;;;;;;;6.37;5.90;;;14.30;99.90;;;;;;4870146;29;20517;-78
2022/11/17 11:40:35;;;;;;;6.30;5.90;;;14.10;99.90;;;;;;4872738;29;20544;-78
2022/11/17 11:43:20;;;;;;;6.50;6.10;;;14.00;99.90;;;;;;4880283;29;20514;-78
2022/11/17 11:45:55;;;;;;;6.33;5.93;;;13.90;99.90;;;;;;4877253;29;21022;-79
2022/11/17 11:48:27;;;;;;;6.00;5.60;;;13.60;99.90;;;;;;4881975;29;20484;-80
2022/11/17 11:50:58;;;;;;;5.80;5.60;;;13.30;99.90;;;;;;4880399;29;20485;-80
2022/11/17 11:53:42;;;;;;;6.70;6.30;;;13.40;99.90;;;;;;4883493;29;20559;-80
2022/11/17 11:56:17;;;;;;;6.30;5.87;;;13.50;99.90;;;;;;4877648;29;21041;-79
2022/11/17 11:58:51;;;;;;;6.60;6.23;;;13.60;99.90;;;;;;4877421;29;20559;-79
2022/11/17 12:01:22;;;;;;;6.63;6.23;;;13.80;99.90;;;;;;4877673;29;20513;-79
2022/11/17 12:04:01;;;;;;;6.40;6.00;;;14.00;99.90;;;;;;4877974;29;20469;-79
2022/11/17 12:06:40;;;;;;;6.20;5.90;;;14.10;99.90;;;;;;4875785;29;20455;-79
2022/11/17 12:09:45;;;;;;;6.00;5.80;;;14.20;99.90;;;;;;4876666;29;20496;-78
2022/11/17 12:12:16;;;;;;;6.53;6.20;;;14.20;99.90;;;;;;4879212;29;20486;-79
2022/11/17 12:15:08;;;;;;;6.43;6.20;;;14.10;99.90;;;;;;4875482;29;21460;-79
2022/11/17 12:17:37;;;;;;;6.90;6.50;;;14.20;99.90;;;;;;4878821;29;20589;-80
2022/11/17 12:20:52;;;;;;;6.23;5.73;;;14.00;99.90;;;;;;4875393;29;20478;-79
2022/11/17 12:23:45;;;;;;;6.80;6.50;;;14.10;99.90;;;;;;4876392;29;20466;-81
2022/11/17 12:26:23;;;;;;;10.13;6.90;;;14.30;99.90;;;;;;4869136;29;21044;-81
2022/11/17 12:29:27;;;;;;;7.20;6.87;;;14.30;99.90;;;;;;4880693;29;20467;-81
2022/11/17 12:31:57;;;;;;;6.67;6.37;;;14.40;99.90;;;;;;4882487;29;20601;-81
2022/11/17 12:34:29;;;;;;;6.10;5.70;;;14.50;99.90;;;;;;4877195;29;22922;-81
2022/11/17 12:37:25;;;;;;;6.50;6.10;;;14.40;99.90;;;;;;4882463;29;20496;-82
2022/11/17 12:39:59;;;;;;;6.93;6.40;;;14.40;99.90;;;;;;4866150;29;20482;-82
2022/11/17 12:42:27;;;;;;;5.30;5.10;;;14.30;99.90;;;;;;4885086;29;21025;-81
2022/11/17 12:44:59;;;;;;;8.53;5.87;;;14.30;99.90;;;;;;4880125;29;20469;-81
2022/11/17 12:47:29;;;;;;;6.67;6.27;;;14.20;99.90;;;;;;4884944;29;20477;-81
2022/11/17 12:50:40;;;;;;;6.70;6.17;;;14.10;99.90;;;;;;4881738;29;21320;-81
2022/11/17 12:53:32;;;;;;;7.83;7.27;;;14.40;99.90;;;;;;4879504;29;20512;-80
2022/11/17 12:56:28;;;;;;;6.40;5.70;;;14.40;99.90;;;;;;4879737;29;21277;-81
2022/11/17 12:59:11;;;;;;;5.73;5.33;;;14.30;99.90;;;;;;4879282;29;20545;-81
2022/11/17 13:01:49;;;;;;;9.80;6.43;;;14.20;99.90;;;;;;4882153;29;20933;-81
2022/11/17 13:04:21;;;;;;;5.87;5.37;;;14.50;99.90;;;;;;4886600;29;20474;-81
2022/11/17 13:07:00;;;;;;;5.87;5.33;;;14.50;99.90;;;;;;4880855;29;20459;-81
2022/11/17 13:09:30;;;;;;;7.40;6.10;;;14.70;99.90;;;;;;4881089;29;20450;-80
2022/11/17 13:12:00;;;;;;;5.23;4.77;;;14.70;99.90;;;;;;4882249;29;20574;-81
2022/11/17 13:14:29;;;;;;;4.80;4.37;;;14.40;99.90;;;;;;4880065;29;20471;-81
2022/11/17 13:17:00;;;;;;;4.30;4.10;;;14.30;99.90;;;;;;4878806;29;21031;-81
2022/11/17 13:19:33;;;;;;;6.37;4.60;;;14.30;99.90;;;;;;4879845;29;20485;-80
2022/11/17 13:22:04;;;;;;;4.93;4.63;;;14.40;99.90;;;;;;4881021;29;20474;-81
2022/11/17 13:24:34;;;;;;;5.00;4.67;;;14.40;99.90;;;;;;4879765;29;20514;-80
2022/11/17 13:27:07;;;;;;;5.53;4.63;;;14.40;99.90;;;;;;4881670;29;20481;-80
2022/11/17 13:29:35;;;;;;;5.20;4.80;;;14.40;99.90;;;;;;4879693;29;20475;-80
2022/11/17 13:32:20;;;;;;;4.80;4.50;;;14.40;99.90;;;;;;4879301;29;21208;-80
2022/11/17 13:34:51;;;;;;;5.33;4.93;;;14.40;99.90;;;;;;4879466;29;20462;-80
2022/11/17 13:37:22;;;;;;;9.17;5.37;;;14.30;99.90;;;;;;4881156;29;20467;-81
2022/11/17 13:40:01;;;;;;;5.17;4.87;;;14.20;99.90;;;;;;4880967;29;20452;-80
2022/11/17 13:42:32;;;;;;;6.27;5.87;;;14.20;99.90;;;;;;4883284;29;20458;-79
2022/11/17 13:45:05;;;;;;;6.83;5.50;;;14.20;99.90;;;;;;4886680;29;20481;-80